Time;durP1;ratioP1;P1;durP2;ratioP2;P2;SDS_P1;SDS_P2;PMS_P1;PMS_P2;Temp;Humidity;BMP_temperature;BMP_pressure;BME280_temperature;BME280_humidity;BME280_pressure;Samples;Min_cycle;Max_cycle;Signal;HPM_P1;HPM_P2
2022/06/10 00:02:07;;;;;;;5.15;2.30;;;;;;;17.37;69.31;100304.66;5028575;28;20045;-84
2022/06/10 00:04:33;;;;;;;3.05;1.80;;;;;;;17.35;69.80;100306.69;5030672;28;20418;-85
2022/06/10 00:06:59;;;;;;;4.57;2.00;;;;;;;17.34;69.59;100294.19;5030371;28;20867;-84
2022/06/10 00:09:24;;;;;;;5.82;1.95;;;;;;;17.31;69.51;100295.38;5014142;28;20045;-84
2022/06/10 00:11:49;;;;;;;5.40;2.35;;;;;;;17.30;69.80;100293.69;5028063;28;20506;-85
2022/06/10 00:14:15;;;;;;;7.40;2.20;;;;;;;17.27;70.03;100304.84;5028860;28;20124;-85
2022/06/10 00:16:40;;;;;;;3.95;1.90;;;;;;;17.26;69.53;100298.59;5028450;28;20498;-85
2022/06/10 00:19:05;;;;;;;5.18;2.05;;;;;;;17.25;69.54;100294.19;5012055;28;20472;-85
2022/06/10 00:21:31;;;;;;;5.28;1.90;;;;;;;17.24;69.48;100305.19;5012281;28;20037;-85
2022/06/10 00:23:56;;;;;;;5.38;1.85;;;;;;;17.25;69.41;100302.31;5012088;28;20084;-85
2022/06/10 00:26:21;;;;;;;4.93;1.90;;;;;;;17.24;69.25;100302.47;5025725;28;20446;-85
2022/06/10 00:28:48;;;;;;;5.45;2.08;;;;;;;17.21;69.58;100305.53;5009790;28;20682;-85
2022/06/10 00:31:15;;;;;;;4.63;1.95;;;;;;;17.17;69.17;100307.75;5024673;28;20516;-85
2022/06/10 00:33:40;;;;;;;6.80;1.83;;;;;;;17.17;69.83;100309.59;5025143;28;20060;-84
2022/06/10 00:36:07;;;;;;;4.18;1.73;;;;;;;17.11;69.72;100304.88;5025469;28;20108;-85
2022/06/10 00:38:32;;;;;;;4.07;1.73;;;;;;;17.07;69.87;100306.25;5008869;28;20032;-85
2022/06/10 00:40:59;;;;;;;3.45;1.77;;;;;;;17.04;70.02;100301.19;5024943;28;20029;-84
2022/06/10 00:43:29;;;;;;;3.38;1.58;;;;;;;17.02;70.16;100301.31;5009287;28;20080;-85
2022/06/10 00:46:15;;;;;;;4.47;1.90;;;;;;;16.96;70.55;100302.84;5008654;28;20029;-85
2022/06/10 00:49:05;;;;;;;4.50;1.80;;;;;;;16.97;70.68;100301.84;5041653;28;20836;-85
2022/06/10 00:51:37;;;;;;;5.40;1.85;;;;;;;16.96;69.71;100304.69;5041243;28;20030;-85
2022/06/10 00:54:16;;;;;;;5.35;1.88;;;;;;;16.93;70.20;100297.78;5024436;28;20491;-84
2022/06/10 00:56:43;;;;;;;;;;;;;;;16.91;69.55;100294.41;5009555;28;20045;-85
2022/06/10 00:59:22;;;;;;;5.25;2.33;;;;;;;16.88;69.59;100294.75;5029053;28;19917;-85
2022/06/10 01:01:54;;;;;;;3.83;1.52;;;;;;;16.87;70.14;100301.16;5012663;28;20053;-85
2022/06/10 01:04:20;;;;;;;5.18;1.80;;;;;;;16.82;69.89;100291.88;5028425;28;20033;-85
2022/06/10 01:06:45;;;;;;;5.95;2.03;;;;;;;16.77;70.26;100292.41;5029741;28;20521;-85
2022/06/10 01:09:11;;;;;;;5.05;2.10;;;;;;;16.80;70.21;100289.34;5028953;28;20095;-85
2022/06/10 01:11:44;;;;;;;5.00;1.98;;;;;;;16.75;70.00;100288.19;5029143;28;20494;-85
2022/06/10 01:14:33;;;;;;;5.97;1.80;;;;;;;16.77;70.08;100284.31;5028414;28;20033;-84
2022/06/10 01:17:12;;;;;;;4.35;1.83;;;;;;;16.78;70.50;100277.88;5032518;28;20037;-85
2022/06/10 01:20:03;;;;;;;5.25;2.15;;;;;;;16.76;70.18;100288.00;5006478;28;20068;-85
2022/06/10 01:22:48;;;;;;;5.38;1.90;;;;;;;16.74;70.48;100287.34;5027800;28;20036;-85
2022/06/10 01:25:37;;;;;;;5.28;1.80;;;;;;;16.76;70.34;100289.88;5031657;28;20031;-85
2022/06/10 01:28:16;;;;;;;5.65;2.15;;;;;;;16.74;70.55;100298.16;5031574;28;20067;-85
2022/06/10 01:30:45;;;;;;;7.75;2.05;;;;;;;16.73;70.44;100296.47;5039501;28;20463;-85
2022/06/10 01:33:32;;;;;;;3.47;1.90;;;;;;;16.72;71.01;100293.94;5032096;28;20063;-85
2022/06/10 01:36:05;;;;;;;5.28;2.00;;;;;;;16.69;70.67;100295.09;5047994;28;20036;-85
2022/06/10 01:38:45;;;;;;;5.15;2.28;;;;;;;16.66;71.23;100295.44;5031087;28;20156;-85
2022/06/10 01:41:23;;;;;;;3.90;2.00;;;;;;;16.64;70.85;100300.16;5038219;28;20017;-85
2022/06/10 01:44:10;;;;;;;5.18;2.08;;;;;;;16.65;70.86;100294.59;5024745;28;20430;-85
2022/06/10 01:46:37;;;;;;;4.72;1.77;;;;;;;16.68;70.46;100294.25;5031432;28;20472;-85
2022/06/10 01:49:51;;;;;;;3.67;1.90;;;;;;;16.67;70.29;100283.63;5025690;28;20056;-85
2022/06/10 01:52:23;;;;;;;4.25;1.98;;;;;;;16.62;70.66;100286.81;5016249;28;20040;-85
2022/06/10 01:54:53;;;;;;;4.75;1.90;;;;;;;16.65;71.11;100289.19;5031294;28;20033;-85
2022/06/10 01:57:25;;;;;;;3.95;1.63;;;;;;;16.70;70.69;100277.03;5030441;28;20033;-85
2022/06/10 02:00:05;;;;;;;4.78;1.67;;;;;;;16.70;70.83;100283.28;5006847;28;20265;-85
2022/06/10 02:02:34;;;;;;;3.55;2.00;;;;;;;16.65;70.43;100289.19;5030602;28;20032;-85
2022/06/10 02:05:09;;;;;;;6.13;1.90;;;;;;;16.62;71.05;100281.41;5015134;28;20029;-84
2022/06/10 02:07:38;;;;;;;4.13;1.70;;;;;;;16.60;69.89;100296.94;5029764;28;20025;-84
2022/06/10 02:10:09;;;;;;;4.65;1.60;;;;;;;16.60;70.38;100293.38;5030428;28;20629;-85
2022/06/10 02:12:40;;;;;;;2.80;1.70;;;;;;;16.59;70.54;100289.00;5047370;28;20353;-86
2022/06/10 02:15:19;;;;;;;6.13;1.83;;;;;;;16.54;70.58;100294.88;5008541;28;20056;-85
2022/06/10 02:17:57;;;;;;;3.58;1.77;;;;;;;16.58;70.50;100290.00;5030290;28;20029;-84
2022/06/10 02:20:25;;;;;;;3.47;1.60;;;;;;;16.57;71.34;100291.88;5039454;28;20021;-85
2022/06/10 02:22:52;;;;;;;5.18;1.63;;;;;;;16.59;71.17;100297.94;5014318;28;20490;-86
2022/06/10 02:25:27;;;;;;;4.55;1.70;;;;;;;16.61;71.18;100306.72;5014808;28;20029;-85
2022/06/10 02:27:56;;;;;;;3.13;1.40;;;;;;;16.56;70.51;100300.16;5028925;28;20021;-85
2022/06/10 02:30:33;;;;;;;;;;;;;;;16.56;71.47;100294.75;5030846;28;20115;-85
2022/06/10 02:32:59;;;;;;;3.90;1.70;;;;;;;16.60;70.89;100301.50;5030123;28;19913;-85
2022/06/10 02:35:33;;;;;;;3.45;1.42;;;;;;;16.63;70.95;100306.56;5031268;28;20070;-85
2022/06/10 02:38:12;;;;;;;5.13;1.60;;;;;;;16.62;70.69;100299.47;5014009;28;20020;-85
2022/06/10 02:41:01;;;;;;;4.72;1.80;;;;;;;16.62;71.30;100312.97;5013885;28;20039;-85
2022/06/10 02:43:41;;;;;;;4.30;1.45;;;;;;;16.59;70.23;100316.84;5030355;28;20021;-85
2022/06/10 02:46:11;;;;;;;5.35;1.73;;;;;;;16.63;70.93;100320.06;5030143;28;20446;-85
2022/06/10 02:48:56;;;;;;;4.55;1.75;;;;;;;16.63;70.70;100311.97;5022244;28;20023;-85
2022/06/10 02:51:21;;;;;;;5.20;1.90;;;;;;;16.65;70.95;100326.13;5030545;28;20056;-85
2022/06/10 02:53:46;;;;;;;5.25;1.40;;;;;;;16.65;71.22;100320.72;5030228;28;20025;-85
2022/06/10 02:56:21;;;;;;;3.05;1.77;;;;;;;16.65;71.45;100329.72;5030303;28;20029;-84
2022/06/10 03:02:08;;;;;;;4.00;1.42;;;;;;;16.70;70.95;100326.50;5032417;28;20121;-86
2022/06/10 03:04:43;;;;;;;3.85;1.52;;;;;;;16.66;70.25;100323.28;5038110;28;20029;-85
2022/06/10 03:07:18;;;;;;;4.38;1.42;;;;;;;16.68;71.32;100328.53;5013080;28;20034;-85
2022/06/10 03:09:57;;;;;;;3.90;1.65;;;;;;;16.67;70.47;100325.00;5046272;28;20032;-85
2022/06/10 03:12:54;;;;;;;4.20;1.42;;;;;;;16.66;70.80;100328.69;5030835;28;20021;-85
2022/06/10 03:15:44;;;;;;;3.35;1.45;;;;;;;16.65;71.35;100337.81;5030069;28;20411;-85
2022/06/10 03:18:14;;;;;;;4.38;1.25;;;;;;;16.67;70.90;100343.88;5047416;28;20398;-85
2022/06/10 03:20:58;;;;;;;4.43;1.25;;;;;;;16.68;70.78;100348.28;5029401;28;20079;-84
2022/06/10 03:23:33;;;;;;;4.90;1.33;;;;;;;16.68;70.97;100342.88;5036109;28;20254;-85
2022/06/10 03:26:04;;;;;;;4.55;1.40;;;;;;;16.68;71.32;100336.63;5047007;28;20021;-85
2022/06/10 03:28:45;;;;;;;2.85;1.52;;;;;;;16.65;71.12;100342.34;5013869;28;20040;-85
2022/06/10 03:31:16;;;;;;;3.92;1.42;;;;;;;16.66;71.33;100338.66;5044614;28;20112;-85
2022/06/10 03:33:54;;;;;;;3.53;1.60;;;;;;;16.65;71.42;100337.81;5021663;28;20033;-85
2022/06/10 03:36:23;;;;;;;4.88;1.50;;;;;;;16.67;70.83;100332.25;5029445;28;20119;-85
2022/06/10 03:38:50;;;;;;;3.47;1.25;;;;;;;16.70;71.44;100339.16;5028945;28;20052;-85
2022/06/10 03:41:43;;;;;;;5.68;1.98;;;;;;;16.71;71.32;100339.00;5012412;28;20117;-84
2022/06/10 03:44:15;;;;;;;4.18;1.70;;;;;;;16.68;70.96;100340.19;5038642;28;20029;-86
2022/06/10 03:46:41;;;;;;;7.13;1.52;;;;;;;16.71;70.91;100338.16;5038407;28;20526;-85
2022/06/10 03:49:10;;;;;;;3.55;1.33;;;;;;;16.70;70.78;100339.16;5013247;28;20029;-85
2022/06/10 03:51:36;;;;;;;5.28;1.50;;;;;;;16.72;71.13;100343.38;5027927;28;20033;-85
2022/06/10 03:54:01;;;;;;;5.30;1.50;;;;;;;16.73;70.66;100349.63;5013531;28;20048;-85
2022/06/10 03:56:27;;;;;;;4.55;1.60;;;;;;;16.73;70.55;100349.63;5028936;28;20037;-84
2022/06/10 03:58:52;;;;;;;5.07;1.50;;;;;;;16.72;70.54;100350.66;5029048;28;20124;-85
2022/06/10 04:01:18;;;;;;;4.55;1.40;;;;;;;16.73;70.66;100352.34;5013198;28;20025;-85
2022/06/10 04:03:43;;;;;;;4.65;1.27;;;;;;;16.75;70.56;100350.31;5012306;28;20036;-87
2022/06/10 04:06:08;;;;;;;3.75;1.40;;;;;;;16.75;70.86;100361.13;5029736;28;20504;-88
2022/06/10 04:08:34;;;;;;;4.78;1.40;;;;;;;16.75;70.48;100359.25;5013383;28;20025;-88
2022/06/10 04:10:59;;;;;;;5.63;1.23;;;;;;;16.78;70.53;100358.91;5013152;28;20036;-88
2022/06/10 04:13:24;;;;;;;3.75;1.20;;;;;;;16.77;70.16;100354.53;5011436;28;20120;-88
2022/06/10 04:15:50;;;;;;;3.03;1.33;;;;;;;16.75;70.51;100348.44;5029673;28;20183;-86
2022/06/10 04:18:15;;;;;;;4.13;1.48;;;;;;;16.77;70.12;100354.53;5013523;28;20107;-88
2022/06/10 04:20:41;;;;;;;6.75;1.35;;;;;;;16.75;69.95;100356.56;5029029;28;20048;-87
2022/06/10 04:23:07;;;;;;;4.13;1.38;;;;;;;16.76;70.70;100357.41;5012997;28;20052;-86
2022/06/10 04:25:34;;;;;;;4.10;1.10;;;;;;;16.77;70.27;100361.78;5030005;28;20028;-87
2022/06/10 04:28:00;;;;;;;3.78;1.33;;;;;;;16.79;70.23;100360.59;5011757;28;20168;-87
2022/06/10 04:30:29;;;;;;;4.50;1.23;;;;;;;16.79;69.74;100365.16;5022617;28;20048;-87
2022/06/10 04:32:54;;;;;;;4.68;1.20;;;;;;;16.79;69.88;100363.31;5040854;28;20036;-87
2022/06/10 04:35:20;;;;;;;4.90;1.20;;;;;;;16.78;70.21;100367.03;5033865;28;20036;-88
2022/06/10 04:37:46;;;;;;;4.38;1.17;;;;;;;16.80;68.96;100369.56;5033627;28;20036;-88
2022/06/10 04:40:18;;;;;;;4.85;1.40;;;;;;;16.81;69.42;100369.38;5033134;28;20047;-87
2022/06/10 04:42:47;;;;;;;4.45;1.55;;;;;;;16.78;69.26;100367.03;5032370;28;20467;-87
2022/06/10 04:45:15;;;;;;;4.65;1.40;;;;;;;16.80;68.32;100374.97;5009328;28;20021;-87
2022/06/10 04:47:40;;;;;;;5.82;1.40;;;;;;;16.80;68.59;100383.06;5024855;28;20360;-87
2022/06/10 04:50:08;;;;;;;3.80;2.00;;;;;;;16.80;68.60;100377.66;5016833;28;20212;-88
2022/06/10 04:52:34;;;;;;;5.00;3.33;;;;;;;16.81;68.91;100382.06;5016925;28;20475;-87
2022/06/10 04:55:00;;;;;;;4.78;1.60;;;;;;;16.80;68.36;100374.97;5015751;28;20032;-87
2022/06/10 04:57:26;;;;;;;2.67;1.10;;;;;;;16.82;68.17;100372.94;5032018;28;20040;-88
2022/06/10 04:59:52;;;;;;;3.35;1.02;;;;;;;16.80;68.31;100378.50;5016954;28;20494;-87
2022/06/10 05:02:17;;;;;;;3.88;1.20;;;;;;;16.83;68.75;100375.47;5016347;28;20061;-87
2022/06/10 05:04:42;;;;;;;4.72;1.33;;;;;;;16.83;68.51;100374.63;5032392;28;20025;-87
2022/06/10 05:07:08;;;;;;;4.55;1.33;;;;;;;16.85;68.63;100369.91;5013905;28;20036;-87
2022/06/10 05:09:33;;;;;;;3.58;1.20;;;;;;;16.87;68.08;100374.13;5031792;28;20991;-88
2022/06/10 05:11:58;;;;;;;3.75;1.17;;;;;;;16.88;68.29;100369.56;5016226;28;20033;-87
2022/06/10 05:14:23;;;;;;;5.00;1.48;;;;;;;16.87;68.74;100371.41;5016550;28;20033;-87
2022/06/10 05:16:49;;;;;;;5.15;1.30;;;;;;;16.90;69.38;100375.63;5028802;28;20423;-87
2022/06/10 05:19:15;;;;;;;5.07;1.30;;;;;;;16.90;68.33;100376.47;5016391;28;20032;-88
2022/06/10 05:21:40;;;;;;;1.95;1.10;;;;;;;16.93;69.19;100378.00;5031661;28;20423;-86
2022/06/10 05:24:05;;;;;;;6.07;1.30;;;;;;;16.95;69.25;100368.72;5011749;28;20041;-87
2022/06/10 05:26:32;;;;;;;4.10;1.20;;;;;;;16.95;69.02;100375.97;5031962;28;20036;-87
2022/06/10 05:28:58;;;;;;;5.90;1.40;;;;;;;16.98;69.19;100372.94;5031734;28;20455;-88
2022/06/10 05:31:24;;;;;;;4.07;1.15;;;;;;;17.03;69.48;100376.00;5016778;28;20033;-87
2022/06/10 05:36:33;;;;;;;3.45;1.25;;;;;;;17.02;68.61;100370.72;5034772;28;20082;-88
2022/06/10 05:38:58;;;;;;;1.67;0.88;;;;;;;17.03;69.25;100370.59;5015028;28;20056;-88
2022/06/10 05:44:09;;;;;;;2.33;0.90;;;;;;;17.09;68.67;100378.03;5033859;28;20657;-87
2022/06/10 05:46:35;;;;;;;3.67;1.45;;;;;;;17.10;68.31;100378.88;5014583;28;20060;-87
2022/06/10 05:49:01;;;;;;;4.28;1.30;;;;;;;17.11;68.06;100378.69;5034362;28;20065;-88
2022/06/10 05:51:27;;;;;;;4.85;1.42;;;;;;;17.11;68.64;100370.59;5033560;28;20514;-87
2022/06/10 05:53:52;;;;;;;3.95;1.13;;;;;;;17.13;67.86;100379.38;5033672;28;20041;-87
2022/06/10 05:56:17;;;;;;;2.78;1.20;;;;;;;17.15;68.22;100379.19;5018151;28;20036;-88
2022/06/10 05:58:43;;;;;;;3.97;1.15;;;;;;;17.15;68.43;100377.34;5034386;28;20495;-87
2022/06/10 06:01:08;;;;;;;2.58;0.93;;;;;;;17.18;68.10;100373.44;5034517;28;20538;-87
2022/06/10 06:03:33;;;;;;;7.18;1.30;;;;;;;17.19;68.13;100378.69;5033119;28;20044;-87
2022/06/10 06:06:00;;;;;;;5.15;1.20;;;;;;;17.21;68.15;100378.50;5030714;28;20104;-87
2022/06/10 06:08:25;;;;;;;4.07;1.30;;;;;;;17.25;67.94;100378.00;5017174;28;20066;-87
2022/06/10 06:10:50;;;;;;;3.25;1.00;;;;;;;17.29;68.01;100373.09;5034285;28;20025;-87
2022/06/10 06:13:16;;;;;;;3.08;1.05;;;;;;;17.36;67.34;100384.91;5034958;28;20476;-87
2022/06/10 06:15:41;;;;;;;3.85;1.27;;;;;;;17.37;67.44;100386.59;5025258;28;20076;-87
2022/06/10 06:18:07;;;;;;;2.83;0.90;;;;;;;17.40;67.62;100390.81;5036488;28;20029;-88
2022/06/10 06:20:32;;;;;;;2.70;0.95;;;;;;;17.40;68.04;100388.97;5035121;28;20048;-87
2022/06/10 06:22:57;;;;;;;5.22;1.30;;;;;;;17.44;67.61;100389.47;5019083;28;20037;-87
2022/06/10 06:25:23;;;;;;;2.97;1.05;;;;;;;17.43;67.17;100396.72;5034814;28;20494;-93
2022/06/10 06:27:49;;;;;;;3.60;1.25;;;;;;;17.44;67.12;100406.53;5035833;28;20110;-91
2022/06/10 06:30:31;;;;;;;2.63;1.10;;;;;;;17.45;67.21;100402.81;5019527;28;20021;-91
2022/06/10 06:33:02;;;;;;;3.00;1.08;;;;;;;17.43;67.01;100414.81;5031435;28;20025;-92
2022/06/10 06:35:28;;;;;;;3.92;1.20;;;;;;;17.44;66.84;100409.22;5037320;28;20029;-93
2022/06/10 06:37:53;;;;;;;5.68;1.33;;;;;;;17.45;67.42;100415.50;5037299;28;20039;-93
2022/06/10 06:40:19;;;;;;;4.07;1.38;;;;;;;17.44;67.28;100416.50;5020385;28;20063;-93
2022/06/10 06:42:46;;;;;;;4.65;1.15;;;;;;;17.47;66.88;100411.59;5037458;28;20455;-93
2022/06/10 06:45:12;;;;;;;4.97;1.10;;;;;;;17.48;67.39;100417.84;5037003;28;20024;-92
2022/06/10 06:47:38;;;;;;;2.17;0.90;;;;;;;17.49;68.25;100414.13;5037670;28;20077;-92
2022/06/10 06:50:04;;;;;;;3.83;1.20;;;;;;;17.48;67.56;100416.00;5021161;28;20119;-92
2022/06/10 06:52:30;;;;;;;4.13;1.25;;;;;;;17.46;68.17;100418.03;5019418;28;20388;-91
2022/06/10 06:54:55;;;;;;;2.72;0.85;;;;;;;17.47;68.02;100417.00;5033825;28;20033;-90
2022/06/10 06:57:22;;;;;;;3.15;0.90;;;;;;;17.51;68.45;100412.13;5033993;28;20021;-90
2022/06/10 06:59:47;;;;;;;2.92;0.82;;;;;;;17.56;68.09;100416.00;5034074;28;20080;-90
2022/06/10 07:02:13;;;;;;;4.18;1.20;;;;;;;17.56;68.36;100420.56;5033740;28;20843;-91
2022/06/10 07:04:38;;;;;;;3.92;1.00;;;;;;;17.59;68.79;100425.63;5017160;28;20021;-92
2022/06/10 07:07:04;;;;;;;2.80;0.90;;;;;;;17.59;68.48;100431.03;5034743;28;20024;-89
2022/06/10 07:09:30;;;;;;;1.88;0.75;;;;;;;17.59;68.71;100428.34;5033664;28;20155;-90
2022/06/10 07:11:56;;;;;;;3.47;0.82;;;;;;;17.59;68.43;100431.03;5034294;28;20111;-90
2022/06/10 07:14:22;;;;;;;2.65;1.00;;;;;;;17.58;68.78;100427.50;5017405;28;20110;-90
2022/06/10 07:16:51;;;;;;;3.92;1.25;;;;;;;17.60;68.42;100430.03;5033502;28;20041;-90
2022/06/10 07:19:17;;;;;;;3.47;1.00;;;;;;;17.59;68.61;100431.88;5034488;28;20017;-91
2022/06/10 07:21:42;;;;;;;3.58;1.00;;;;;;;17.58;67.95;100429.34;5033440;28;20063;-91
2022/06/10 07:24:08;;;;;;;3.92;1.20;;;;;;;17.60;68.34;100438.13;5016963;28;20025;-91
2022/06/10 07:26:33;;;;;;;2.97;1.08;;;;;;;17.59;68.32;100441.84;5017421;28;20032;-91
2022/06/10 07:28:58;;;;;;;3.17;1.15;;;;;;;17.58;68.54;100442.88;5017324;28;20031;-92
2022/06/10 07:31:24;;;;;;;3.50;1.13;;;;;;;17.60;68.91;100447.09;5034209;28;20021;-92
2022/06/10 07:33:49;;;;;;;3.15;1.25;;;;;;;17.60;68.78;100447.09;5018299;28;20056;-92
2022/06/10 07:36:14;;;;;;;3.03;1.00;;;;;;;17.62;68.96;100447.78;5034340;28;20033;-93
2022/06/10 07:38:40;;;;;;;3.30;1.00;;;;;;;17.64;68.27;100439.50;5033621;28;20040;-91
2022/06/10 07:43:49;;;;;;;5.28;1.25;;;;;;;17.74;69.28;100440.16;5051771;28;20086;-92
2022/06/10 07:46:17;;;;;;;2.20;1.10;;;;;;;17.71;69.14;100453.19;5017311;28;20037;-90
2022/06/10 07:48:43;;;;;;;3.05;0.98;;;;;;;17.70;68.92;100446.09;5031789;28;20345;-91
2022/06/10 07:51:09;;;;;;;3.10;1.05;;;;;;;17.67;69.23;100443.75;5017142;28;20032;-92
2022/06/10 07:53:35;;;;;;;3.25;1.23;;;;;;;17.66;69.51;100445.56;5015430;28;20032;-93
2022/06/10 07:56:00;;;;;;;4.13;1.20;;;;;;;17.63;69.21;100445.91;5017802;28;20071;-92
2022/06/10 07:58:28;;;;;;;3.72;1.10;;;;;;;17.63;69.00;100446.75;5017955;28;20040;-92
2022/06/10 08:00:54;;;;;;;3.37;1.30;;;;;;;17.65;69.93;100443.88;5033487;28;20037;-93
2022/06/10 08:03:19;;;;;;;3.92;1.70;;;;;;;17.70;70.32;100444.25;5016146;28;20032;-93
2022/06/10 08:05:44;;;;;;;3.45;1.30;;;;;;;17.70;70.65;100444.25;5035057;28;20036;-93
2022/06/10 08:08:14;;;;;;;4.40;1.67;;;;;;;17.75;70.26;100441.00;5020412;28;20495;-93
2022/06/10 08:10:39;;;;;;;3.65;1.48;;;;;;;17.83;70.92;100446.41;5019808;28;20022;-93
2022/06/10 08:13:05;;;;;;;3.65;1.40;;;;;;;17.84;70.85;100440.81;5022449;28;20488;-93
2022/06/10 08:15:31;;;;;;;3.13;1.20;;;;;;;17.88;70.27;100442.16;5040009;28;20067;-93
2022/06/10 08:17:57;;;;;;;4.38;1.40;;;;;;;17.92;69.82;100434.53;5038671;28;20425;-91
2022/06/10 08:23:37;;;;;;;3.35;1.27;;;;;;;17.95;69.60;100439.59;5042809;28;20075;-93
2022/06/10 08:26:06;;;;;;;4.18;1.10;;;;;;;17.94;70.27;100430.63;5040106;28;20029;-92
2022/06/10 08:28:32;;;;;;;3.55;1.35;;;;;;;17.93;70.12;100431.66;5039170;28;20037;-92
2022/06/10 08:30:58;;;;;;;3.08;1.13;;;;;;;17.98;69.76;100431.16;5038982;28;20108;-91
2022/06/10 08:33:24;;;;;;;3.85;1.30;;;;;;;18.01;69.66;100430.81;5038759;28;20148;-92
2022/06/10 08:35:49;;;;;;;2.83;1.10;;;;;;;18.01;70.04;100429.97;5039064;28;20025;-90
2022/06/10 08:38:16;;;;;;;3.05;1.00;;;;;;;18.04;70.43;100426.91;5018939;28;20106;-84
2022/06/10 08:40:47;;;;;;;3.05;0.98;;;;;;;18.08;70.25;100433.66;5036216;28;20024;-85
2022/06/10 08:43:31;;;;;;;4.93;1.20;;;;;;;18.08;70.28;100429.09;5052991;28;20067;-85
2022/06/10 08:46:32;;;;;;;2.38;1.02;;;;;;;18.09;69.49;100433.50;5026679;28;20021;-85
2022/06/10 08:49:12;;;;;;;4.28;1.05;;;;;;;18.12;70.22;100421.47;5042023;28;20556;-84
2022/06/10 08:51:58;;;;;;;2.97;1.08;;;;;;;18.13;69.93;100418.59;5052829;28;20029;-84
2022/06/10 08:54:42;;;;;;;1.95;1.00;;;;;;;18.16;70.77;100417.38;5034760;28;20035;-84
2022/06/10 08:57:26;;;;;;;3.28;1.10;;;;;;;18.19;70.49;100422.44;5051734;28;20414;-84
2022/06/10 08:59:52;;;;;;;2.50;1.02;;;;;;;18.22;70.29;100422.09;5034784;28;20029;-85
2022/06/10 09:02:51;;;;;;;2.47;1.00;;;;;;;18.24;70.24;100411.94;5034009;28;20456;-85
2022/06/10 09:05:37;;;;;;;2.75;1.00;;;;;;;18.27;70.45;100417.00;5029361;28;20067;-85
2022/06/10 09:08:06;;;;;;;4.47;1.30;;;;;;;18.31;70.13;100409.38;5034154;28;20032;-85
2022/06/10 09:10:42;;;;;;;2.15;1.13;;;;;;;18.34;69.77;100409.00;5019027;28;20498;-84
2022/06/10 09:13:31;;;;;;;4.55;1.00;;;;;;;18.39;69.48;100420.16;5029779;28;20372;-84
2022/06/10 09:15:59;;;;;;;3.70;1.20;;;;;;;18.42;69.96;100412.50;5034361;28;20041;-85
2022/06/10 09:18:32;;;;;;;2.25;1.13;;;;;;;18.45;70.27;100414.06;5035616;28;20021;-92
2022/06/10 09:21:09;;;;;;;3.17;1.20;;;;;;;18.47;69.72;100420.97;5038347;28;20028;-93
2022/06/10 09:23:40;;;;;;;2.70;1.08;;;;;;;18.47;69.71;100420.97;5022654;28;20028;-92
2022/06/10 09:26:10;;;;;;;6.13;1.23;;;;;;;18.48;69.35;100419.13;5037532;28;20035;-92
2022/06/10 09:28:37;;;;;;;3.83;1.30;;;;;;;18.50;69.11;100428.75;5022624;28;20468;-92
2022/06/10 09:31:27;;;;;;;2.70;1.02;;;;;;;18.53;69.86;100427.56;5022230;28;20037;-93
2022/06/10 09:34:08;;;;;;;3.90;1.08;;;;;;;18.54;69.90;100427.38;5022485;28;20024;-93
2022/06/10 09:36:50;;;;;;;4.10;1.20;;;;;;;18.56;69.24;100428.03;5044598;28;20063;-93
2022/06/10 09:42:44;;;;;;;3.55;1.17;;;;;;;18.60;69.48;100424.97;5030140;28;20036;-93
2022/06/10 09:45:34;;;;;;;2.33;0.93;;;;;;;18.59;69.14;100416.00;5036711;28;20024;-94
2022/06/10 09:48:19;;;;;;;2.35;1.20;;;;;;;18.64;70.19;100420.91;5008329;28;20113;-87
2022/06/10 09:50:56;;;;;;;6.78;1.50;;;;;;;18.67;69.76;100415.97;5016974;28;20043;-86
2022/06/10 09:54:06;;;;;;;2.53;1.13;;;;;;;18.69;69.87;100418.50;5050027;28;20025;-87
2022/06/10 09:56:38;;;;;;;4.47;1.38;;;;;;;18.71;70.02;100411.88;5017080;28;20120;-87
2022/06/10 09:59:10;;;;;;;4.30;1.10;;;;;;;18.75;69.54;100415.06;5018020;28;20159;-87
2022/06/10 10:01:39;;;;;;;2.95;1.15;;;;;;;18.76;69.87;100409.47;5048710;28;20056;-87
2022/06/10 10:04:38;;;;;;;3.80;1.20;;;;;;;18.78;69.45;100415.56;5034702;28;20110;-86
2022/06/10 10:07:12;;;;;;;2.63;1.05;;;;;;;18.81;69.92;100417.06;5042615;28;20068;-87
2022/06/10 10:09:42;;;;;;;3.35;1.13;;;;;;;18.82;70.03;100411.47;5016211;28;20029;-87
2022/06/10 10:12:41;;;;;;;2.15;1.10;;;;;;;18.83;70.38;100415.88;5033444;28;20487;-88
2022/06/10 10:15:33;;;;;;;3.65;1.25;;;;;;;18.85;70.25;100415.69;5012333;28;20184;-87
2022/06/10 10:18:25;;;;;;;3.75;1.15;;;;;;;18.85;69.82;100407.56;5031537;28;20075;-87
2022/06/10 10:20:57;;;;;;;3.78;1.35;;;;;;;18.88;69.23;100404.47;5048860;28;20039;-87
2022/06/10 10:23:35;;;;;;;4.88;1.17;;;;;;;18.90;69.74;100407.00;5046447;28;20025;-86
2022/06/10 10:26:06;;;;;;;3.13;1.30;;;;;;;18.91;70.08;100406.81;5041046;28;20104;-87
2022/06/10 10:28:35;;;;;;;5.45;1.45;;;;;;;18.93;70.12;100401.25;5033021;28;20078;-87
2022/06/10 10:31:13;;;;;;;4.32;1.10;;;;;;;18.97;69.26;100397.16;5034001;28;20041;-87
2022/06/10 10:33:43;;;;;;;2.78;1.15;;;;;;;19.01;69.84;100401.19;5017571;28;20021;-87
2022/06/10 10:36:36;;;;;;;4.45;1.13;;;;;;;19.04;69.84;100404.38;5032157;28;20086;-86
2022/06/10 10:39:25;;;;;;;3.90;1.10;;;;;;;19.06;69.83;100405.03;5020820;28;20033;-87
2022/06/10 10:41:52;;;;;;;2.08;1.23;;;;;;;19.11;70.01;100401.78;5022783;28;20479;-87
2022/06/10 10:44:31;;;;;;;4.13;1.25;;;;;;;19.14;69.65;100409.53;5022507;28;20029;-87
2022/06/10 10:47:10;;;;;;;10.30;1.30;;;;;;;19.19;68.19;100404.41;5048034;28;20024;-87
2022/06/10 10:49:40;;;;;;;5.35;1.38;;;;;;;19.21;68.66;100407.78;5048186;28;20409;-87
2022/06/10 10:52:09;;;;;;;2.55;0.93;;;;;;;19.24;69.33;100401.16;5031413;28;20136;-88
2022/06/10 10:54:35;;;;;;;2.70;1.10;;;;;;;19.27;68.82;100400.78;5014052;28;20025;-84
2022/06/10 10:57:12;;;;;;;2.25;1.10;;;;;;;19.29;68.45;100402.28;5017689;28;20483;-86
2022/06/10 10:59:40;;;;;;;4.53;1.30;;;;;;;19.32;68.96;100403.78;5009166;28;20140;-87
2022/06/10 11:02:29;;;;;;;5.30;1.48;;;;;;;19.34;69.39;100412.59;5021233;28;20549;-87
2022/06/10 11:05:35;;;;;;;4.50;1.27;;;;;;;19.38;69.03;100416.63;5021595;28;20518;-88
2022/06/10 11:08:30;;;;;;;3.20;1.17;;;;;;;19.40;69.43;100411.88;5032631;28;20093;-87
2022/06/10 11:11:24;;;;;;;5.43;1.20;;;;;;;19.42;69.27;100415.25;5023805;28;20514;-85
2022/06/10 11:13:55;;;;;;;6.00;1.27;;;;;;;19.43;69.57;100406.09;5032395;28;20028;-87
2022/06/10 11:16:26;;;;;;;3.17;1.30;;;;;;;19.46;68.80;100400.28;5038884;28;20049;-87
2022/06/10 11:18:54;;;;;;;3.38;1.20;;;;;;;19.46;69.14;100406.56;5046785;28;20048;-87
2022/06/10 11:21:23;;;;;;;3.70;1.30;;;;;;;19.48;68.77;100412.66;5026143;28;20025;-86
2022/06/10 11:23:49;;;;;;;;;;;;;;;19.50;68.11;100407.03;5016381;28;20033;-87
2022/06/10 11:26:18;;;;;;;5.03;1.45;;;;;;;19.51;68.36;100397.88;5031610;28;20525;-85
2022/06/10 11:28:44;;;;;;;4.72;1.45;;;;;;;19.56;68.66;100410.91;5017278;28;20423;-87
2022/06/10 11:31:17;;;;;;;3.85;1.70;;;;;;;19.56;68.76;100402.75;5032441;28;20043;-87
2022/06/10 11:33:45;;;;;;;5.63;1.60;;;;;;;19.59;67.80;100399.69;5032371;28;20100;-86
2022/06/10 11:36:13;;;;;;;3.60;1.33;;;;;;;19.60;68.17;100404.09;5030830;28;20028;-87
2022/06/10 11:38:51;;;;;;;4.95;1.40;;;;;;;19.63;67.85;100392.84;5041008;28;20394;-86
2022/06/10 11:41:24;;;;;;;4.72;1.80;;;;;;;19.65;68.49;100393.50;5028296;28;20025;-87
2022/06/10 11:43:56;;;;;;;3.30;1.48;;;;;;;19.67;68.16;100397.72;5037450;28;20021;-85
2022/06/10 11:46:24;;;;;;;3.33;1.55;;;;;;;19.67;68.23;100392.28;5031368;28;20054;-86
2022/06/10 11:49:11;;;;;;;;;;;;;;;19.69;68.25;100392.94;5033064;28;20029;-87
2022/06/10 11:51:51;;;;;;;5.13;1.80;;;;;;;19.70;68.81;100383.78;5027897;28;19917;-86
2022/06/10 11:54:26;;;;;;;7.85;1.73;;;;;;;19.73;68.51;100377.13;5025733;28;20029;-87
2022/06/10 11:59:54;;;;;;;3.72;1.50;;;;;;;19.76;68.35;100377.59;5028388;28;20441;-87
2022/06/10 12:02:35;;;;;;;3.38;1.42;;;;;;;19.78;68.11;100370.13;5030288;28;20032;-87
2022/06/10 12:05:25;;;;;;;5.10;1.63;;;;;;;19.81;68.34;100383.31;5030706;28;20045;-86
2022/06/10 12:08:16;;;;;;;5.72;1.70;;;;;;;19.87;68.33;100370.03;5047317;28;20029;-86
2022/06/10 12:10:57;;;;;;;3.53;1.38;;;;;;;19.88;68.36;100372.56;5007401;28;20116;-87